createdAt,value
2022-08-27T00:02:42.015Z,24.70
2022-08-27T00:07:44.816Z,24.70
2022-08-27T00:12:48.439Z,24.70
2022-08-27T00:17:50.768Z,24.70
2022-08-27T00:22:53.925Z,24.60
2022-08-27T00:27:56.216Z,24.50
2022-08-27T00:32:58.495Z,24.50
2022-08-27T00:38:01.194Z,24.40
2022-08-27T00:43:03.606Z,24.40
2022-08-27T00:48:09.153Z,24.40
2022-08-27T00:53:14.673Z,24.40
2022-08-27T01:03:30.466Z,24.50
2022-08-27T01:08:36.727Z,24.50
2022-08-27T01:13:59.268Z,24.40
2022-08-27T01:19:08.185Z,24.40
2022-08-27T01:24:39.491Z,24.40
2022-08-27T01:29:43.478Z,24.40
2022-08-27T01:34:46.757Z,24.40
2022-08-27T01:39:49.220Z,24.30
2022-08-27T01:50:06.210Z,24.30
2022-08-27T01:55:12.210Z,24.30
2022-08-27T02:00:19.030Z,24.30
2022-08-27T02:05:21.842Z,24.30
2022-08-27T02:10:27.969Z,24.30
2022-08-27T02:15:30.657Z,24.30
2022-08-27T02:20:34.779Z,24.30
2022-08-27T02:25:37.689Z,24.30
2022-08-27T02:30:40.254Z,24.30
2022-08-27T02:35:44.392Z,24.30
2022-08-27T02:40:46.796Z,24.30
2022-08-27T02:45:50.793Z,24.20
2022-08-27T02:50:53.312Z,24.20
2022-08-27T02:55:55.566Z,24.20
2022-08-27T03:00:58.104Z,24.30
2022-08-27T03:06:00.455Z,24.20
2022-08-27T03:11:02.687Z,24.30
2022-08-27T03:16:06.310Z,24.30
2022-08-27T03:21:09.041Z,24.20
2022-08-27T03:26:12.431Z,24.20
2022-08-27T03:31:26.708Z,24.10
2022-08-27T03:36:31.252Z,24.10
2022-08-27T03:41:45.527Z,24.10
2022-08-27T03:46:55.897Z,24.20
2022-08-27T03:51:58.311Z,24.10
2022-08-27T03:57:00.681Z,24.20
2022-08-27T04:02:03.108Z,24.10
2022-08-27T04:07:05.558Z,24.20
2022-08-27T04:12:08.113Z,24.20
2022-08-27T04:17:10.352Z,24.30
2022-08-27T04:22:13.071Z,24.30
2022-08-27T04:27:16.411Z,24.30
2022-08-27T04:32:18.664Z,24.40
2022-08-27T04:37:23.299Z,24.30
2022-08-27T04:42:25.888Z,24.40
2022-08-27T04:47:28.214Z,24.50
2022-08-27T04:52:30.469Z,24.60
2022-08-27T04:57:34.877Z,24.60
2022-08-27T05:02:37.124Z,24.70
2022-08-27T05:07:39.368Z,24.80
2022-08-27T05:12:41.623Z,24.90
2022-08-27T05:17:44.195Z,25.10
2022-08-27T05:22:46.790Z,25.20
2022-08-27T05:27:49.040Z,25.40
2022-08-27T05:32:51.309Z,25.50
2022-08-27T05:37:54.636Z,25.60
2022-08-27T05:42:56.908Z,25.70
2022-08-27T05:47:59.169Z,25.80
2022-08-27T05:53:01.419Z,25.90
2022-08-27T05:58:04.198Z,26.00
2022-08-27T06:03:07.647Z,26.20
2022-08-27T06:08:10.107Z,26.30
2022-08-27T06:13:12.488Z,26.40
2022-08-27T06:18:14.939Z,26.50
2022-08-27T06:23:17.582Z,26.80
2022-08-27T06:28:30.610Z,27.10
2022-08-27T06:33:33.196Z,27.20
2022-08-27T06:38:36.685Z,27.20
2022-08-27T06:43:40.716Z,27.00
2022-08-27T06:48:48.392Z,27.50
2022-08-27T06:53:52.658Z,30.00
2022-08-27T06:58:57.496Z,32.60
2022-08-27T07:04:02.362Z,35.00
2022-08-27T07:09:05.558Z,36.60
2022-08-27T07:14:08.550Z,37.70
2022-08-27T07:19:11.782Z,37.20
2022-08-27T07:24:14.187Z,37.60
2022-08-27T07:29:16.466Z,39.10
2022-08-27T07:34:18.956Z,40.00
2022-08-27T07:39:21.265Z,40.00
2022-08-27T07:44:28.071Z,39.20
2022-08-27T07:49:35.355Z,37.80
2022-08-27T07:54:38.163Z,36.80
2022-08-27T07:59:40.406Z,35.90
2022-08-27T08:04:42.653Z,35.50
2022-08-27T08:09:44.886Z,34.70
2022-08-27T08:14:47.227Z,33.60
2022-08-27T08:20:08.580Z,32.70
2022-08-27T08:25:14.132Z,32.20
2022-08-27T08:30:16.630Z,32.10
2022-08-27T08:35:19.267Z,31.40
2022-08-27T08:40:41.871Z,31.20
2022-08-27T08:45:46.352Z,31.20
2022-08-27T08:50:57.827Z,31.20
2022-08-27T08:56:03.791Z,30.30
2022-08-27T09:01:09.759Z,29.50
2022-08-27T09:06:24.266Z,28.80
2022-08-27T09:16:36.509Z,28.30
2022-08-27T09:26:52.828Z,28.40
2022-08-27T09:37:17.323Z,28.10
2022-08-27T09:42:29.992Z,28.00
2022-08-27T09:47:43.372Z,27.90
2022-08-27T09:57:56.855Z,28.40
2022-08-27T10:03:03.030Z,27.80
2022-08-27T10:08:28.438Z,28.00
2022-08-27T10:46:05.554Z,28.10
2022-08-27T10:51:23.722Z,27.90
2022-08-27T10:57:03.696Z,27.80
2022-08-27T11:07:45.207Z,27.30
2022-08-27T11:12:51.853Z,27.10
2022-08-27T11:23:10.203Z,26.70
2022-08-27T11:28:14.364Z,27.20
2022-08-27T11:38:53.755Z,27.40
2022-08-27T11:43:57.878Z,27.60
2022-08-27T11:49:03.431Z,27.20
2022-08-27T11:54:09.646Z,26.80
2022-08-27T12:04:36.434Z,26.80
2022-08-27T12:15:18.541Z,26.90
2022-08-27T12:20:48.608Z,27.00
2022-08-27T12:26:13.047Z,27.00
2022-08-27T12:31:21.652Z,26.90
2022-08-27T12:36:28.605Z,27.20
2022-08-27T12:41:44.218Z,27.30
2022-08-27T12:46:50.867Z,27.30
2022-08-27T12:51:54.942Z,27.10
2022-08-27T12:57:20.553Z,27.20
2022-08-27T13:02:42.181Z,27.00
2022-08-27T13:07:47.166Z,26.60
2022-08-27T13:13:03.096Z,26.10
2022-08-27T13:18:07.492Z,26.30
2022-08-27T13:23:24.144Z,26.10
2022-08-27T13:28:29.400Z,26.20
2022-08-27T13:33:34.534Z,26.00
2022-08-27T13:38:44.526Z,26.30
2022-08-27T13:43:49.982Z,26.30
2022-08-27T13:48:56.117Z,26.40
2022-08-27T13:54:16.889Z,26.40
2022-08-27T14:09:59.390Z,26.30
2022-08-27T14:20:34.789Z,26.00
2022-08-27T14:25:37.072Z,25.60
2022-08-27T14:30:39.829Z,25.40
2022-08-27T14:35:42.600Z,25.40
2022-08-27T14:40:46.083Z,25.30
2022-08-27T14:45:49.223Z,25.40
2022-08-27T14:50:54.085Z,25.40
2022-08-27T14:55:58.951Z,25.40
2022-08-27T15:01:02.091Z,25.60
2022-08-27T15:06:04.955Z,25.20
2022-08-27T15:11:14.495Z,25.10
2022-08-27T15:16:27.339Z,25.40
2022-08-27T15:21:30.997Z,25.10
2022-08-27T15:26:34.939Z,25.20
2022-08-27T15:31:38.821Z,25.60
2022-08-27T15:36:41.515Z,25.50
2022-08-27T15:42:05.087Z,25.40
2022-08-27T15:47:06.384Z,25.60
2022-08-27T15:52:10.735Z,25.60
2022-08-27T15:57:17.851Z,25.70
2022-08-27T16:02:23.510Z,25.60
2022-08-27T16:07:26.646Z,25.60
2022-08-27T16:12:29.047Z,25.50
2022-08-27T16:17:31.595Z,25.40
2022-08-27T16:22:34.979Z,25.40
2022-08-27T16:27:37.604Z,25.40
2022-08-27T16:32:40.975Z,25.60
2022-08-27T16:37:44.368Z,25.70
2022-08-27T16:42:48.964Z,25.70
2022-08-27T16:48:11.887Z,25.80
2022-08-27T16:53:18.008Z,25.80
2022-08-27T16:58:24.532Z,25.90
2022-08-27T17:03:28.315Z,26.00
2022-08-27T17:08:30.614Z,25.90
2022-08-27T17:13:33.070Z,25.70
2022-08-27T17:18:35.922Z,25.70
2022-08-27T17:23:41.427Z,25.90
2022-08-27T17:28:45.128Z,26.00
2022-08-27T17:33:50.252Z,26.20
2022-08-27T17:38:53.912Z,26.20
2022-08-27T17:43:59.555Z,26.20
2022-08-27T17:49:02.121Z,26.30
2022-08-27T17:54:06.109Z,26.30
2022-08-27T17:59:08.991Z,26.30
2022-08-27T18:04:11.324Z,26.30
2022-08-27T18:09:16.016Z,26.30
2022-08-27T18:14:18.688Z,26.30
2022-08-27T18:19:20.957Z,26.30
2022-08-27T18:24:23.200Z,26.30
2022-08-27T18:29:25.563Z,26.20
2022-08-27T18:34:27.899Z,26.20
2022-08-27T18:39:30.141Z,26.20
2022-08-27T18:44:38.268Z,26.20
2022-08-27T18:49:40.548Z,26.10
2022-08-27T18:54:43.171Z,26.00
2022-08-27T18:59:45.792Z,26.00
2022-08-27T19:04:48.758Z,26.00
2022-08-27T19:09:51.191Z,25.90
2022-08-27T19:14:53.470Z,25.80
2022-08-27T19:19:56.208Z,25.80
2022-08-27T19:24:59.727Z,25.80
2022-08-27T19:30:02.155Z,25.80
2022-08-27T19:35:05.552Z,25.70
2022-08-27T19:40:08.600Z,25.70
2022-08-27T19:45:11.338Z,25.60
2022-08-27T19:50:16.609Z,25.60
2022-08-27T19:55:19.148Z,25.50
2022-08-27T20:00:24.603Z,25.50
2022-08-27T20:05:30.201Z,25.50
2022-08-27T20:10:36.439Z,25.50
2022-08-27T20:15:40.678Z,25.40
2022-08-27T20:20:42.943Z,25.40
2022-08-27T20:25:45.520Z,25.30
2022-08-27T20:30:48.678Z,25.30
2022-08-27T20:35:51.198Z,25.30
2022-08-27T20:40:53.556Z,25.30
2022-08-27T20:45:56.646Z,25.30
2022-08-27T20:50:58.998Z,25.40
2022-08-27T20:56:01.323Z,25.50
2022-08-27T21:01:04.522Z,25.60
2022-08-27T21:06:07.206Z,25.50
2022-08-27T21:11:12.114Z,25.50
2022-08-27T21:16:14.484Z,25.50
2022-08-27T21:21:16.795Z,25.50
2022-08-27T21:26:20.210Z,25.50
2022-08-27T21:31:22.505Z,25.50
2022-08-27T21:36:24.798Z,25.50
2022-08-27T21:41:28.098Z,25.50
2022-08-27T21:46:30.532Z,25.50
2022-08-27T21:51:32.928Z,25.50
2022-08-27T21:56:35.162Z,25.40
2022-08-27T22:01:37.821Z,25.40
2022-08-27T22:06:40.163Z,25.40
2022-08-27T22:11:42.440Z,25.30
2022-08-27T22:16:47.493Z,25.10
2022-08-27T22:21:49.920Z,25.00
2022-08-27T22:26:52.162Z,24.90
2022-08-27T22:31:54.499Z,24.90
2022-08-27T22:36:56.763Z,24.80
2022-08-27T22:41:59.234Z,24.70
2022-08-27T22:47:02.704Z,24.70
2022-08-27T22:52:05.085Z,24.70
2022-08-27T22:57:10.363Z,24.70
2022-08-27T23:02:12.957Z,24.70
2022-08-27T23:07:15.556Z,24.70
2022-08-27T23:12:19.935Z,24.80
2022-08-27T23:17:23.951Z,24.80
2022-08-27T23:22:27.479Z,24.80
2022-08-27T23:27:29.772Z,24.80
2022-08-27T23:32:32.396Z,24.90
2022-08-27T23:37:34.824Z,24.90
2022-08-27T23:42:37.666Z,24.90
2022-08-27T23:47:40.248Z,24.90
2022-08-27T23:52:42.824Z,25.00
2022-08-27T23:57:45.078Z,25.00
